Time;durP1;ratioP1;P1;durP2;ratioP2;P2;SDS_P1;SDS_P2;PMS_P1;PMS_P2;Temp;Humidity;BMP_temperature;BMP_pressure;BME280_temperature;BME280_humidity;BME280_pressure;Samples;Min_cycle;Max_cycle;Signal;HPM_P1;HPM_P2
2021/11/11 00:00:50;;;;;;;19.38;11.30;;;4.10;99.90;;;;;;5009011;28;20125;-79
2021/11/11 00:03:18;;;;;;;14.48;10.63;;;4.10;99.90;;;;;;5008917;28;20105;-81
2021/11/11 00:05:44;;;;;;;16.35;11.00;;;4.10;99.90;;;;;;4992056;28;20057;-80
2021/11/11 00:08:11;;;;;;;16.75;11.13;;;4.10;99.90;;;;;;5008745;28;20015;-81
2021/11/11 00:10:37;;;;;;;14.80;10.50;;;4.10;99.90;;;;;;5012951;28;20025;-80
2021/11/11 00:13:03;;;;;;;13.85;10.05;;;4.10;99.90;;;;;;5013081;28;20021;-81
2021/11/11 00:15:31;;;;;;;14.40;9.95;;;4.10;99.90;;;;;;5013600;28;20023;-81
2021/11/11 00:17:57;;;;;;;13.73;10.23;;;4.10;99.90;;;;;;4994787;28;20027;-81
2021/11/11 00:20:26;;;;;;;14.77;10.07;;;4.10;99.90;;;;;;4992777;28;20061;-80
2021/11/11 00:22:53;;;;;;;16.75;9.80;;;4.10;99.90;;;;;;5009745;28;20365;-82
2021/11/11 00:25:21;;;;;;;13.38;9.38;;;4.00;99.90;;;;;;5009903;28;20030;-81
2021/11/11 00:27:48;;;;;;;13.23;9.57;;;4.00;99.90;;;;;;5009597;28;20019;-81
2021/11/11 00:30:16;;;;;;;16.35;10.63;;;4.00;99.90;;;;;;4991558;28;20325;-81
2021/11/11 00:32:43;;;;;;;16.02;10.57;;;4.00;99.90;;;;;;4991833;28;20038;-82
2021/11/11 00:35:11;;;;;;;16.88;10.95;;;4.00;99.90;;;;;;5009026;28;20030;-81
2021/11/11 00:37:37;;;;;;;17.27;12.10;;;3.90;99.90;;;;;;5009090;28;20049;-81
2021/11/11 00:40:05;;;;;;;17.15;11.98;;;3.90;99.90;;;;;;5007807;28;20036;-82
2021/11/11 00:42:30;;;;;;;15.38;10.65;;;3.90;99.90;;;;;;5008767;28;20029;-81
2021/11/11 00:44:56;;;;;;;20.52;11.50;;;3.90;99.90;;;;;;5008507;28;20018;-82
2021/11/11 00:47:22;;;;;;;18.10;12.05;;;3.90;99.90;;;;;;4990821;28;20026;-82
2021/11/11 00:49:48;;;;;;;21.90;12.23;;;3.90;99.90;;;;;;5009367;28;20077;-82
2021/11/11 00:52:15;;;;;;;19.48;12.00;;;3.80;99.90;;;;;;5009212;28;20093;-81
2021/11/11 00:54:42;;;;;;;18.63;11.80;;;3.80;99.90;;;;;;4992779;28;20050;-81
2021/11/11 00:57:08;;;;;;;19.33;11.98;;;3.80;99.90;;;;;;5012902;28;20022;-81
2021/11/11 00:59:42;;;;;;;19.92;11.75;;;3.80;99.90;;;;;;5127536;27;20384;-82
2021/11/11 01:02:09;;;;;;;18.70;12.15;;;3.80;99.90;;;;;;5126900;28;20062;-81
2021/11/11 01:04:37;;;;;;;20.55;11.88;;;3.80;99.90;;;;;;5127109;28;20103;-81
2021/11/11 01:07:05;;;;;;;19.25;12.43;;;3.80;99.90;;;;;;5106277;28;20035;-81
2021/11/11 01:09:31;;;;;;;20.65;13.77;;;3.80;99.90;;;;;;5145492;28;20049;-81
2021/11/11 01:11:57;;;;;;;21.85;13.25;;;3.70;99.90;;;;;;5146027;28;20023;-81
2021/11/11 01:14:24;;;;;;;21.30;13.77;;;3.70;99.90;;;;;;5146338;28;20027;-81
2021/11/11 01:16:52;;;;;;;24.35;13.68;;;3.70;99.90;;;;;;5145335;28;20038;-82
2021/11/11 01:19:18;;;;;;;22.20;12.68;;;3.70;99.90;;;;;;5145248;28;20102;-81
2021/11/11 01:21:44;;;;;;;20.55;12.80;;;3.60;99.90;;;;;;5147412;28;20031;-82
2021/11/11 01:24:09;;;;;;;19.67;12.18;;;3.60;99.90;;;;;;5145354;28;20034;-81
2021/11/11 01:26:35;;;;;;;17.35;11.95;;;3.60;99.90;;;;;;5146479;28;20024;-81
2021/11/11 01:29:02;;;;;;;18.92;12.50;;;3.60;99.90;;;;;;5127702;28;20020;-81
2021/11/11 01:31:27;;;;;;;20.95;12.45;;;3.60;99.90;;;;;;5146393;28;20114;-81
2021/11/11 01:33:53;;;;;;;16.25;10.88;;;3.60;99.90;;;;;;5146333;28;20015;-81
2021/11/11 01:36:19;;;;;;;17.13;11.57;;;3.50;99.90;;;;;;5127716;28;20034;-81
2021/11/11 01:38:44;;;;;;;18.90;12.07;;;3.40;99.90;;;;;;5127658;28;20027;-82
2021/11/11 01:41:10;;;;;;;21.33;12.35;;;3.40;99.90;;;;;;5127339;28;20035;-80
2021/11/11 01:43:36;;;;;;;18.90;11.98;;;3.40;99.90;;;;;;5147062;28;20022;-81
2021/11/11 01:46:02;;;;;;;16.15;10.68;;;3.40;99.90;;;;;;5129062;28;20023;-82
2021/11/11 01:48:29;;;;;;;16.40;11.05;;;3.30;99.90;;;;;;5128379;28;20011;-81
2021/11/11 01:50:55;;;;;;;17.65;10.57;;;3.30;99.90;;;;;;5130961;28;20024;-81
2021/11/11 01:53:21;;;;;;;20.33;11.25;;;3.30;99.90;;;;;;5150991;28;20110;-81
2021/11/11 01:55:48;;;;;;;17.15;10.65;;;3.20;99.90;;;;;;5132965;28;20027;-81
2021/11/11 01:58:16;;;;;;;17.98;10.77;;;3.30;99.90;;;;;;5150577;28;20083;-82
2021/11/11 02:00:55;;;;;;;17.38;10.57;;;3.30;99.90;;;;;;5151083;28;20004;-81
2021/11/11 02:03:22;;;;;;;17.15;10.30;;;3.30;99.90;;;;;;5148084;28;20075;-81
2021/11/11 02:05:48;;;;;;;18.67;11.90;;;3.30;99.90;;;;;;5145950;28;20307;-82
2021/11/11 02:08:14;;;;;;;17.50;10.80;;;3.30;99.90;;;;;;5128008;28;20027;-82
2021/11/11 02:10:40;;;;;;;14.70;9.95;;;3.30;99.90;;;;;;5118549;28;20089;-82
2021/11/11 02:13:07;;;;;;;17.02;10.30;;;3.30;99.90;;;;;;5133644;28;20065;-82
2021/11/11 02:15:34;;;;;;;18.60;11.65;;;3.30;99.90;;;;;;5132860;28;20039;-81
2021/11/11 02:18:00;;;;;;;16.50;11.48;;;3.20;99.90;;;;;;5133495;28;20026;-81
2021/11/11 02:20:32;;;;;;;19.30;11.25;;;3.20;99.90;;;;;;5133343;28;20015;-82
2021/11/11 02:22:59;;;;;;;17.27;10.38;;;3.10;99.90;;;;;;5132758;28;20039;-82
2021/11/11 02:25:26;;;;;;;18.67;10.80;;;3.10;99.90;;;;;;5132500;28;20045;-82
2021/11/11 02:28:04;;;;;;;16.70;10.10;;;3.10;99.90;;;;;;5132168;28;20100;-82
2021/11/11 02:30:31;;;;;;;14.35;8.68;;;3.10;99.90;;;;;;5132666;28;20032;-81
2021/11/11 02:32:58;;;;;;;13.23;9.77;;;3.10;99.90;;;;;;5113352;28;20019;-81
2021/11/11 02:35:24;;;;;;;11.35;8.35;;;3.10;99.90;;;;;;5113612;28;20027;-81
2021/11/11 02:37:51;;;;;;;14.05;8.90;;;3.10;99.90;;;;;;5134806;28;20039;-81
2021/11/11 02:40:19;;;;;;;13.18;8.30;;;3.10;99.90;;;;;;5134889;28;20082;-81
2021/11/11 02:42:49;;;;;;;11.13;8.90;;;3.10;99.90;;;;;;5133054;28;20027;-81
2021/11/11 02:45:22;;;;;;;12.27;8.27;;;3.10;99.90;;;;;;5132304;28;20076;-82
2021/11/11 02:47:48;;;;;;;12.73;8.85;;;3.00;99.90;;;;;;5113673;28;20028;-81
2021/11/11 02:50:15;;;;;;;11.80;7.97;;;3.00;99.90;;;;;;5132620;28;20051;-80
2021/11/11 02:52:43;;;;;;;10.55;7.63;;;3.00;99.90;;;;;;5130950;28;20028;-81
2021/11/11 02:55:09;;;;;;;12.75;7.50;;;3.00;99.90;;;;;;5112274;28;20042;-81
2021/11/11 02:57:39;;;;;;;10.25;6.75;;;3.00;99.90;;;;;;5112666;28;20412;-81
2021/11/11 03:00:21;;;;;;;11.20;7.13;;;3.00;99.90;;;;;;5132005;28;20023;-81
2021/11/11 03:02:49;;;;;;;9.93;6.30;;;3.00;99.90;;;;;;5132053;28;20106;-81
2021/11/11 03:05:19;;;;;;;9.48;6.78;;;3.00;99.90;;;;;;5113249;28;20024;-81
2021/11/11 03:07:45;;;;;;;9.40;6.95;;;3.00;99.90;;;;;;5113930;28;20023;-81
2021/11/11 03:10:15;;;;;;;9.45;6.75;;;3.00;99.90;;;;;;5132483;28;20179;-82
2021/11/11 03:12:41;;;;;;;10.15;6.55;;;3.00;99.90;;;;;;5132288;28;20320;-81
2021/11/11 03:15:09;;;;;;;9.10;6.70;;;3.00;99.90;;;;;;5114820;28;20062;-82
2021/11/11 03:17:35;;;;;;;9.95;6.88;;;3.00;99.90;;;;;;5117292;28;20187;-82
2021/11/11 03:20:02;;;;;;;9.90;6.35;;;3.10;99.90;;;;;;5135922;28;20032;-81
2021/11/11 03:22:27;;;;;;;9.60;6.25;;;3.10;99.90;;;;;;5130472;28;20019;-81
2021/11/11 03:24:54;;;;;;;11.13;6.70;;;3.10;99.90;;;;;;5130982;28;20032;-81
2021/11/11 03:27:20;;;;;;;10.40;6.57;;;3.00;99.90;;;;;;5111892;28;20036;-81
2021/11/11 03:29:48;;;;;;;8.45;6.10;;;3.10;99.90;;;;;;5111909;28;20028;-82
2021/11/11 03:32:14;;;;;;;10.60;6.35;;;3.10;99.90;;;;;;5130672;28;20020;-81
2021/11/11 03:34:40;;;;;;;9.88;6.18;;;3.10;99.90;;;;;;5111911;28;20023;-81
2021/11/11 03:37:07;;;;;;;8.32;5.93;;;3.00;99.90;;;;;;5113905;28;20074;-82
2021/11/11 03:39:33;;;;;;;8.85;6.07;;;3.00;99.90;;;;;;5111964;28;20027;-82
2021/11/11 03:41:58;;;;;;;9.10;5.95;;;3.00;99.90;;;;;;5111737;28;20035;-81
2021/11/11 03:44:24;;;;;;;9.85;6.70;;;3.00;99.90;;;;;;5129884;28;20104;-82
2021/11/11 03:46:54;;;;;;;8.20;5.50;;;3.00;99.90;;;;;;5112963;28;20023;-82
2021/11/11 03:49:20;;;;;;;9.70;6.15;;;3.00;99.90;;;;;;5130534;28;20027;-82
2021/11/11 03:51:47;;;;;;;8.98;6.15;;;2.90;99.90;;;;;;5130303;28;20646;-81
2021/11/11 03:54:15;;;;;;;11.93;8.05;;;2.90;99.90;;;;;;5130740;28;20117;-81
2021/11/11 03:56:42;;;;;;;14.13;8.55;;;2.90;99.90;;;;;;5112346;28;20030;-81
2021/11/11 03:59:09;;;;;;;14.48;9.50;;;2.90;99.90;;;;;;5111452;28;20066;-82
2021/11/11 04:01:36;;;;;;;14.45;9.85;;;2.90;99.90;;;;;;5111298;28;20031;-81
2021/11/11 04:04:03;;;;;;;16.75;10.32;;;2.90;99.90;;;;;;5113003;28;20027;-81
2021/11/11 04:06:30;;;;;;;16.10;10.23;;;2.90;99.90;;;;;;5131380;28;20031;-82
2021/11/11 04:08:55;;;;;;;23.75;13.18;;;2.90;99.90;;;;;;5130738;28;20444;-82
2021/11/11 04:11:21;;;;;;;21.55;11.90;;;2.90;99.90;;;;;;5131371;28;20098;-82
2021/11/11 04:13:48;;;;;;;16.88;11.50;;;2.90;99.90;;;;;;5131081;28;20091;-81
2021/11/11 04:16:13;;;;;;;14.70;9.63;;;2.90;99.90;;;;;;5112425;28;20186;-82
2021/11/11 04:18:40;;;;;;;16.27;10.60;;;2.90;99.90;;;;;;5111448;28;20036;-81
2021/11/11 04:21:06;;;;;;;15.77;10.18;;;2.90;99.90;;;;;;5110767;28;20091;-81
2021/11/11 04:23:32;;;;;;;12.15;9.07;;;2.90;99.90;;;;;;5113854;28;20065;-81
2021/11/11 04:26:13;;;;;;;16.52;9.70;;;2.90;99.90;;;;;;5136597;28;20018;-82
2021/11/11 04:28:53;;;;;;;13.57;8.60;;;2.90;99.90;;;;;;5136145;28;20049;-82
2021/11/11 04:34:02;;;;;;;11.63;8.25;;;2.90;99.90;;;;;;5132107;28;20043;-81
2021/11/11 04:36:54;;;;;;;10.55;8.02;;;2.90;99.90;;;;;;5114768;28;20020;-82
2021/11/11 04:45:12;;;;;;;15.43;8.75;;;2.80;99.90;;;;;;5131127;28;20106;-81
2021/11/11 04:59:32;;;;;;;11.55;7.63;;;2.80;99.90;;;;;;5130289;28;20022;-81
2021/11/11 05:01:34;;;;;;;16.15;9.10;;;2.90;99.90;;;;;;5130064;28;20517;-82
2021/11/11 05:04:00;;;;;;;18.90;12.15;;;2.90;99.90;;;;;;5111393;28;20071;-81
2021/11/11 05:06:26;;;;;;;21.85;12.30;;;3.00;99.90;;;;;;5129060;28;20019;-82
2021/11/11 05:08:51;;;;;;;17.88;11.30;;;3.00;99.90;;;;;;5129466;28;20055;-82
2021/11/11 05:11:18;;;;;;;18.42;11.48;;;3.00;99.90;;;;;;5110266;28;20047;-80
2021/11/11 05:13:44;;;;;;;18.65;10.48;;;3.00;99.90;;;;;;5129695;28;20030;-80
2021/11/11 05:16:09;;;;;;;15.50;9.85;;;2.90;99.90;;;;;;5115280;28;20031;-80
2021/11/11 05:18:36;;;;;;;14.18;9.77;;;2.90;99.90;;;;;;5113425;28;20095;-80
2021/11/11 05:21:01;;;;;;;15.23;9.57;;;2.80;99.90;;;;;;5130150;28;20020;-81
2021/11/11 05:23:27;;;;;;;18.38;10.45;;;2.80;99.90;;;;;;5113922;28;20027;-80
2021/11/11 05:25:53;;;;;;;14.85;10.10;;;2.70;99.90;;;;;;5133589;28;20047;-81
2021/11/11 05:28:20;;;;;;;14.70;10.35;;;2.70;99.90;;;;;;5130553;28;20254;-81
2021/11/11 05:30:46;;;;;;;13.85;9.40;;;2.70;99.90;;;;;;5111017;28;20163;-81
2021/11/11 05:33:11;;;;;;;16.58;10.00;;;2.70;99.90;;;;;;5129614;28;20336;-81
2021/11/11 05:35:38;;;;;;;16.25;10.18;;;2.70;99.90;;;;;;5129157;28;20108;-80
2021/11/11 05:38:04;;;;;;;18.23;11.00;;;2.70;99.90;;;;;;5137117;22;20035;-82
2021/11/11 05:40:31;;;;;;;16.27;10.43;;;2.70;99.90;;;;;;5054427;28;20496;-82
2021/11/11 05:42:58;;;;;;;18.70;10.70;;;2.60;99.90;;;;;;5059729;28;20028;-82
2021/11/11 05:45:24;;;;;;;17.83;11.90;;;2.60;99.90;;;;;;5060858;28;20318;-82
2021/11/11 05:47:50;;;;;;;16.67;10.32;;;2.60;99.90;;;;;;5062893;28;20029;-82
2021/11/11 05:50:17;;;;;;;17.65;10.65;;;2.70;99.90;;;;;;5084683;28;20384;-81
2021/11/11 05:52:44;;;;;;;15.65;9.40;;;2.70;99.90;;;;;;5067563;28;20036;-81
2021/11/11 05:55:10;;;;;;;16.45;9.90;;;2.70;99.90;;;;;;5070329;28;20025;-81
2021/11/11 05:57:36;;;;;;;18.60;10.50;;;2.60;99.90;;;;;;5068582;28;20032;-81
2021/11/11 06:00:05;;;;;;;16.13;9.63;;;2.60;99.90;;;;;;5064816;28;20009;-81
2021/11/11 06:02:31;;;;;;;19.75;10.63;;;2.50;99.90;;;;;;5064256;28;20029;-81
2021/11/11 06:04:56;;;;;;;19.95;11.32;;;2.50;99.90;;;;;;5063738;28;20242;-80
2021/11/11 06:07:22;;;;;;;15.15;9.45;;;2.50;99.90;;;;;;5065310;28;20077;-80
2021/11/11 06:09:48;;;;;;;17.27;10.07;;;2.40;99.90;;;;;;5064493;28;20021;-81
2021/11/11 06:12:14;;;;;;;15.43;9.77;;;2.50;99.90;;;;;;5063638;28;20123;-81
2021/11/11 06:14:39;;;;;;;22.10;11.38;;;2.50;99.90;;;;;;5065790;28;20396;-81
2021/11/11 06:17:06;;;;;;;18.17;11.10;;;2.60;99.90;;;;;;5070254;28;20032;-80
2021/11/11 06:19:36;;;;;;;16.08;10.52;;;2.70;99.90;;;;;;5077998;28;20024;-81
2021/11/11 06:22:03;;;;;;;13.85;9.70;;;2.70;99.90;;;;;;5071935;28;20008;-81
2021/11/11 06:24:29;;;;;;;13.75;9.75;;;2.70;99.90;;;;;;5078125;28;20016;-80
2021/11/11 06:26:56;;;;;;;15.68;8.80;;;2.80;99.90;;;;;;5045738;28;20439;-81
2021/11/11 06:29:23;;;;;;;13.50;9.20;;;2.90;99.90;;;;;;5064959;28;20096;-82
2021/11/11 06:31:48;;;;;;;13.15;9.02;;;2.90;99.90;;;;;;5061278;28;20419;-81
2021/11/11 06:34:14;;;;;;;13.32;9.15;;;2.90;99.90;;;;;;5062874;28;20048;-81
2021/11/11 06:36:40;;;;;;;13.68;9.20;;;2.90;99.90;;;;;;5062870;28;20103;-81
2021/11/11 06:39:06;;;;;;;11.18;8.23;;;2.90;99.90;;;;;;5062771;28;20032;-81
2021/11/11 06:41:31;;;;;;;16.80;8.77;;;2.90;99.90;;;;;;5064987;28;20021;-82
2021/11/11 06:43:57;;;;;;;11.13;8.10;;;3.00;99.90;;;;;;5061650;28;20140;-81
2021/11/11 06:46:23;;;;;;;11.43;7.60;;;3.00;99.90;;;;;;5060961;28;20040;-81
2021/11/11 06:48:49;;;;;;;10.82;7.35;;;3.00;99.90;;;;;;5065531;28;20036;-81
2021/11/11 06:51:15;;;;;;;11.88;8.18;;;3.10;99.90;;;;;;5064016;28;20021;-81
2021/11/11 06:53:41;;;;;;;11.65;7.43;;;3.10;99.90;;;;;;5047402;28;20075;-80
2021/11/11 06:56:07;;;;;;;11.57;7.80;;;3.10;99.90;;;;;;5046494;28;20029;-82
2021/11/11 06:58:33;;;;;;;11.90;7.55;;;3.10;99.90;;;;;;5064204;28;20029;-81
2021/11/11 07:01:01;;;;;;;12.18;7.32;;;3.20;99.90;;;;;;5063987;28;20059;-82
2021/11/11 07:03:29;;;;;;;12.10;7.10;;;3.20;99.90;;;;;;5064349;28;20121;-82
2021/11/11 07:05:55;;;;;;;13.80;7.75;;;3.30;99.90;;;;;;5065964;28;20032;-81
2021/11/11 07:08:21;;;;;;;11.65;6.97;;;3.30;99.90;;;;;;5065215;28;20087;-81
2021/11/11 07:10:50;;;;;;;11.27;7.05;;;3.30;99.90;;;;;;5064605;28;20086;-81
2021/11/11 07:13:17;;;;;;;14.38;8.25;;;3.40;99.90;;;;;;5063397;28;20083;-81
2021/11/11 07:15:43;;;;;;;10.60;7.35;;;3.40;99.90;;;;;;5063553;28;20025;-81
2021/11/11 07:18:11;;;;;;;11.90;6.85;;;3.50;99.90;;;;;;5045742;28;20067;-81
2021/11/11 07:20:40;;;;;;;9.65;7.25;;;3.60;99.90;;;;;;5045506;28;20048;-81
2021/11/11 07:23:06;;;;;;;14.43;7.80;;;3.70;99.90;;;;;;5062739;28;20369;-81
2021/11/11 07:25:32;;;;;;;12.88;7.38;;;3.80;99.90;;;;;;5044770;28;20029;-81
2021/11/11 07:27:59;;;;;;;12.40;7.10;;;3.90;99.90;;;;;;5062296;28;20021;-81
2021/11/11 07:30:26;;;;;;;11.35;6.75;;;4.00;99.90;;;;;;5044701;28;20032;-80
2021/11/11 07:32:52;;;;;;;8.95;6.20;;;4.00;99.90;;;;;;5062130;28;20109;-81
2021/11/11 07:35:18;;;;;;;9.35;5.70;;;4.20;99.90;;;;;;5061175;28;20075;-81
2021/11/11 07:37:47;;;;;;;8.57;6.20;;;4.30;99.90;;;;;;5043316;28;20032;-81
2021/11/11 07:40:15;;;;;;;11.05;7.32;;;4.40;99.90;;;;;;5061661;28;20104;-83
2021/11/11 07:42:42;;;;;;;8.70;5.53;;;4.50;99.90;;;;;;5045011;28;20097;-82
2021/11/11 07:45:08;;;;;;;7.65;5.88;;;4.60;99.90;;;;;;5063117;28;20063;-83
2021/11/11 07:47:35;;;;;;;8.23;5.70;;;4.70;99.90;;;;;;5046896;28;20071;-82
2021/11/11 07:50:03;;;;;;;7.97;5.22;;;4.70;99.90;;;;;;5063208;28;20284;-82
2021/11/11 07:52:29;;;;;;;11.68;7.47;;;4.80;99.90;;;;;;5062191;28;20246;-82
2021/11/11 07:54:56;;;;;;;15.63;8.48;;;4.80;99.90;;;;;;5061604;28;20509;-82
2021/11/11 07:57:27;;;;;;;11.27;7.60;;;4.70;99.90;;;;;;5061523;28;20017;-82
2021/11/11 07:59:54;;;;;;;14.25;8.68;;;4.80;99.90;;;;;;5061850;28;20056;-82
2021/11/11 08:02:21;;;;;;;12.23;7.80;;;4.90;99.90;;;;;;5043260;28;20032;-81
2021/11/11 08:04:47;;;;;;;13.00;7.68;;;4.90;99.90;;;;;;5062647;28;20028;-81
2021/11/11 08:07:17;;;;;;;9.98;6.65;;;5.00;99.90;;;;;;5060560;28;20104;-81
2021/11/11 08:09:44;;;;;;;10.90;6.65;;;5.20;99.90;;;;;;5062562;28;20072;-81
2021/11/11 08:12:10;;;;;;;9.38;6.72;;;5.30;99.90;;;;;;5061398;28;20017;-81
2021/11/11 08:14:36;;;;;;;8.52;6.07;;;5.30;99.90;;;;;;5062247;28;20060;-81
2021/11/11 08:17:02;;;;;;;9.23;6.43;;;5.50;99.90;;;;;;5046746;28;20511;-81
2021/11/11 08:19:27;;;;;;;9.63;5.90;;;5.70;99.90;;;;;;5044102;28;20040;-82
2021/11/11 08:21:53;;;;;;;8.35;5.78;;;5.90;99.90;;;;;;5043754;28;20025;-82
2021/11/11 08:24:19;;;;;;;12.18;6.93;;;6.00;99.90;;;;;;5062899;28;20024;-82
2021/11/11 08:26:45;;;;;;;12.23;6.78;;;6.10;99.90;;;;;;5064684;28;20431;-81
2021/11/11 08:29:10;;;;;;;9.93;6.05;;;6.20;99.90;;;;;;5046614;28;20021;-81
2021/11/11 08:31:36;;;;;;;10.18;6.20;;;6.40;99.90;;;;;;5047938;28;20021;-82
2021/11/11 08:34:02;;;;;;;7.75;5.68;;;6.50;99.90;;;;;;5065541;28;20062;-83
2021/11/11 08:36:28;;;;;;;6.85;5.10;;;6.60;99.90;;;;;;5064648;28;20100;-83
2021/11/11 08:38:58;;;;;;;8.38;5.15;;;6.80;99.90;;;;;;5063778;28;20401;-82
2021/11/11 08:41:26;;;;;;;7.25;5.18;;;7.00;99.90;;;;;;5064885;28;20453;-82
2021/11/11 08:43:53;;;;;;;7.40;5.32;;;7.10;99.90;;;;;;5067178;28;20087;-82
2021/11/11 08:46:19;;;;;;;8.35;5.28;;;7.20;99.90;;;;;;5047562;28;20017;-81
2021/11/11 08:48:45;;;;;;;8.27;5.53;;;7.40;99.90;;;;;;5027388;28;20363;-82
2021/11/11 08:51:11;;;;;;;7.53;4.95;;;7.60;99.40;;;;;;5042415;28;20025;-81
2021/11/11 08:53:37;;;;;;;8.93;5.50;;;7.80;98.60;;;;;;5045561;28;20052;-82
2021/11/11 08:56:03;;;;;;;9.85;5.45;;;7.90;97.90;;;;;;5042618;28;20022;-81
2021/11/11 08:58:32;;;;;;;7.95;5.63;;;8.00;97.50;;;;;;5039890;28;20389;-81
2021/11/11 09:01:02;;;;;;;7.28;5.88;;;8.10;97.30;;;;;;5063307;28;20025;-81
2021/11/11 09:03:30;;;;;;;13.07;8.15;;;8.20;96.90;;;;;;5050049;28;20037;-82
2021/11/11 09:06:02;;;;;;;15.02;8.68;;;8.30;96.20;;;;;;5056608;28;20009;-81
2021/11/11 09:08:28;;;;;;;10.68;8.13;;;8.30;96.00;;;;;;5055894;28;20044;-82
2021/11/11 09:10:54;;;;;;;13.20;8.02;;;8.40;96.00;;;;;;5068017;28;20014;-82
2021/11/11 09:13:20;;;;;;;10.55;8.18;;;8.60;95.60;;;;;;5066868;28;20021;-82
2021/11/11 09:15:46;;;;;;;12.70;8.10;;;9.10;94.90;;;;;;5056887;28;20048;-81
2021/11/11 09:18:12;;;;;;;10.77;7.63;;;9.70;93.60;;;;;;5056892;28;20037;-81
2021/11/11 09:20:39;;;;;;;9.80;7.22;;;10.10;92.30;;;;;;5070027;28;20031;-82
2021/11/11 09:23:05;;;;;;;11.95;7.80;;;9.90;91.10;;;;;;5069557;28;20021;-82
2021/11/11 09:25:32;;;;;;;11.30;6.78;;;9.90;91.60;;;;;;5053726;28;20089;-81
2021/11/11 09:28:01;;;;;;;9.27;6.93;;;10.20;91.20;;;;;;5074135;28;20052;-81
2021/11/11 09:30:31;;;;;;;8.73;6.50;;;10.70;90.60;;;;;;5054110;28;20090;-81
2021/11/11 09:32:57;;;;;;;8.93;6.68;;;10.90;88.90;;;;;;5052669;28;20111;-81
2021/11/11 09:35:23;;;;;;;9.60;7.05;;;10.60;88.40;;;;;;5054118;28;20029;-81
2021/11/11 09:37:49;;;;;;;10.50;7.45;;;10.20;89.30;;;;;;5059204;28;20067;-82
2021/11/11 09:40:19;;;;;;;7.53;5.93;;;10.00;90.30;;;;;;5078814;28;20167;-81
2021/11/11 09:42:45;;;;;;;7.30;5.75;;;10.00;90.70;;;;;;5079130;28;20060;-81
2021/11/11 09:45:15;;;;;;;11.90;7.88;;;10.20;90.50;;;;;;5060294;28;20033;-84
2021/11/11 09:47:44;;;;;;;14.05;8.40;;;10.10;90.00;;;;;;5052981;28;20028;-80
2021/11/11 09:50:10;;;;;;;13.52;7.95;;;9.90;90.20;;;;;;5070161;28;20080;-80
2021/11/11 09:52:39;;;;;;;11.18;8.43;;;9.80;90.40;;;;;;5069904;28;20040;-82
2021/11/11 10:01:13;;;;;;;11.50;8.05;;;10.30;90.00;;;;;;5070690;28;20048;-81
2021/11/11 10:03:43;;;;;;;19.35;9.57;;;10.20;89.30;;;;;;5069426;28;20017;-83
2021/11/11 10:06:34;;;;;;;21.60;9.57;;;10.10;89.40;;;;;;5051966;28;20021;-83
2021/11/11 10:09:10;;;;;;;11.57;8.80;;;10.10;89.80;;;;;;5033444;28;20037;-83
2021/11/11 10:11:41;;;;;;;14.23;9.10;;;10.10;90.10;;;;;;5050589;28;20021;-82
2021/11/11 10:14:10;;;;;;;18.20;10.02;;;10.30;90.00;;;;;;5051743;28;20184;-82
2021/11/11 10:16:42;;;;;;;14.48;9.35;;;10.50;87.80;;;;;;5072542;28;20021;-79
2021/11/11 10:19:07;;;;;;;13.25;8.70;;;10.60;87.70;;;;;;5060050;28;20059;-80
2021/11/11 10:21:48;;;;;;;13.30;8.23;;;10.70;87.60;;;;;;5035372;28;20030;-82
2021/11/11 10:24:34;;;;;;;13.18;8.30;;;10.70;87.40;;;;;;5030866;28;20017;-82
2021/11/11 10:27:24;;;;;;;14.95;9.80;;;10.80;87.30;;;;;;5046491;28;20036;-82
2021/11/11 10:30:08;;;;;;;15.90;9.32;;;10.70;87.00;;;;;;5049709;28;20031;-82
2021/11/11 10:32:42;;;;;;;12.32;8.50;;;10.60;87.50;;;;;;5068209;28;20021;-82
2021/11/11 10:35:14;;;;;;;10.63;7.07;;;10.60;88.10;;;;;;5069683;28;20040;-82
2021/11/11 10:37:49;;;;;;;8.93;6.82;;;10.70;88.20;;;;;;5068131;28;20025;-82
2021/11/11 10:40:23;;;;;;;9.57;7.20;;;10.90;87.40;;;;;;5066169;28;20024;-81
2021/11/11 10:42:51;;;;;;;8.90;6.57;;;11.10;86.70;;;;;;5047374;28;20466;-80
2021/11/11 10:45:20;;;;;;;9.52;7.43;;;11.30;85.80;;;;;;5030019;28;20263;-82
2021/11/11 10:47:50;;;;;;;18.98;11.07;;;11.40;85.10;;;;;;5047031;28;20073;-81
2021/11/11 10:50:23;;;;;;;15.20;9.55;;;11.30;84.30;;;;;;5046613;28;20013;-82
2021/11/11 10:53:00;;;;;;;16.42;9.48;;;11.20;84.40;;;;;;5047084;28;20072;-81
2021/11/11 10:55:30;;;;;;;12.90;8.93;;;11.20;84.60;;;;;;5029210;28;20042;-81
2021/11/11 10:58:10;;;;;;;13.02;8.55;;;11.20;84.90;;;;;;5029373;28;20030;-81
2021/11/11 11:00:54;;;;;;;13.55;8.95;;;11.30;85.00;;;;;;5049259;28;20041;-82
2021/11/11 11:03:26;;;;;;;15.93;10.13;;;11.50;84.40;;;;;;5029392;28;20467;-81
2021/11/11 11:05:54;;;;;;;;;;;11.50;83.10;;;;;;5030606;28;20029;-81
2021/11/11 11:08:26;;;;;;;12.95;9.63;;;11.50;83.00;;;;;;5051097;28;19960;-81
2021/11/11 11:10:56;;;;;;;15.05;9.93;;;11.40;83.10;;;;;;5072244;28;20040;-82
2021/11/11 11:13:30;;;;;;;15.25;9.27;;;11.50;83.40;;;;;;5049714;28;20054;-81
2021/11/11 11:15:59;;;;;;;10.48;8.13;;;11.40;83.30;;;;;;5050358;28;20025;-81
2021/11/11 11:18:32;;;;;;;9.30;7.18;;;11.50;83.50;;;;;;5067854;28;20055;-82
2021/11/11 11:21:00;;;;;;;;;;;11.60;83.40;;;;;;5069001;28;20029;-82
2021/11/11 11:23:44;;;;;;;12.82;8.85;;;11.70;83.30;;;;;;5068523;28;19935;-82
2021/11/11 11:26:16;;;;;;;18.65;9.80;;;11.80;82.20;;;;;;5051121;28;20044;-82
2021/11/11 11:28:49;;;;;;;17.90;9.57;;;11.70;81.50;;;;;;5067837;28;20055;-81
2021/11/11 11:31:27;;;;;;;18.15;9.57;;;11.70;81.30;;;;;;5050022;28;20028;-82
2021/11/11 11:33:53;;;;;;;15.10;9.10;;;11.70;81.40;;;;;;5067593;28;20037;-82
2021/11/11 11:36:33;;;;;;;16.02;10.10;;;11.70;81.30;;;;;;5067566;28;20032;-82
2021/11/11 11:38:59;;;;;;;20.02;10.30;;;11.70;81.30;;;;;;5083691;22;20063;-79
2021/11/11 11:41:38;;;;;;;17.38;9.70;;;11.70;81.10;;;;;;5086941;28;20047;-80
2021/11/11 11:45:03;;;;;;;15.20;9.80;;;11.80;81.50;;;;;;5081648;28;20020;-80
2021/11/11 11:50:03;;;;;;;17.27;9.82;;;11.80;81.40;;;;;;5016032;28;20068;-80
2021/11/11 11:52:31;;;;;;;17.85;11.23;;;11.90;81.30;;;;;;5053561;28;20422;-80
2021/11/11 11:57:47;;;;;;;17.38;10.98;;;12.00;81.20;;;;;;5079308;28;20029;-79
2021/11/11 12:09:10;;;;;;;16.80;11.60;;;11.80;83.60;;;;;;5098959;28;20028;-79
2021/11/11 12:14:27;;;;;;;15.35;11.05;;;11.60;85.00;;;;;;5100180;28;20035;-79
2021/11/11 12:39:56;;;;;;;16.35;12.30;;;11.30;87.50;;;;;;5080223;28;20055;-79
2021/11/11 12:42:40;;;;;;;15.60;11.10;;;11.30;87.60;;;;;;5066898;28;20394;-80
2021/11/11 12:45:30;;;;;;;20.15;11.57;;;11.30;87.70;;;;;;5098645;28;20020;-80
2021/11/11 12:48:23;;;;;;;18.38;11.30;;;11.30;87.00;;;;;;5098416;28;20027;-80
2021/11/11 12:50:59;;;;;;;17.13;12.10;;;11.30;86.90;;;;;;5075379;28;20496;-79
2021/11/11 12:53:30;;;;;;;13.52;10.13;;;11.20;87.40;;;;;;5080792;28;20062;-80
2021/11/11 12:55:57;;;;;;;17.15;11.55;;;11.20;88.40;;;;;;5098623;28;20040;-80
2021/11/11 12:58:36;;;;;;;18.63;12.82;;;11.20;87.70;;;;;;5102159;28;20099;-80
2021/11/11 13:01:11;;;;;;;17.70;11.27;;;11.10;87.50;;;;;;5089389;28;20311;-79
2021/11/11 13:03:58;;;;;;;16.98;11.77;;;11.00;88.40;;;;;;5101143;28;20032;-80
2021/11/11 13:06:45;;;;;;;20.45;11.48;;;10.90;88.70;;;;;;5103626;28;20032;-79
2021/11/11 13:09:11;;;;;;;16.85;12.23;;;10.80;89.20;;;;;;5108603;28;20101;-79
2021/11/11 13:11:43;;;;;;;14.55;11.75;;;10.80;89.30;;;;;;5106864;28;20024;-79
2021/11/11 13:14:14;;;;;;;16.40;11.50;;;10.70;89.90;;;;;;5107695;28;20028;-80
2021/11/11 13:16:41;;;;;;;17.70;12.02;;;10.60;89.90;;;;;;5100364;28;20145;-81
2021/11/11 13:19:06;;;;;;;15.20;10.80;;;10.60;90.00;;;;;;5099314;28;20032;-79
2021/11/11 13:21:55;;;;;;;14.93;12.13;;;10.70;90.10;;;;;;5099748;28;20024;-79
2021/11/11 16:26:54;;;;;;;46.55;29.00;;;5.60;99.90;;;;;;5102683;28;20016;-80
2021/11/11 16:29:21;;;;;;;48.25;28.63;;;5.60;99.90;;;;;;5107508;28;20027;-78
2021/11/11 16:31:47;;;;;;;47.67;28.08;;;5.50;99.90;;;;;;5113016;28;20012;-79
2021/11/11 16:34:13;;;;;;;53.63;30.85;;;5.50;99.90;;;;;;5078872;28;20412;-79
2021/11/11 16:36:42;;;;;;;60.22;34.22;;;5.50;99.90;;;;;;5098762;28;20095;-79
2021/11/11 16:39:11;;;;;;;58.97;33.97;;;5.40;99.90;;;;;;5080377;28;20191;-79
2021/11/11 16:41:39;;;;;;;57.50;33.08;;;5.40;99.90;;;;;;5085018;28;20031;-79
2021/11/11 16:44:05;;;;;;;58.65;34.55;;;5.40;99.90;;;;;;5083918;28;20016;-81
2021/11/11 16:46:35;;;;;;;61.65;36.38;;;5.30;99.90;;;;;;5081150;28;20020;-80
2021/11/11 16:49:01;;;;;;;62.20;34.65;;;5.20;99.90;;;;;;5099467;28;20039;-80
2021/11/11 16:51:27;;;;;;;60.92;32.88;;;5.20;99.90;;;;;;5082988;28;20071;-80
2021/11/11 16:53:53;;;;;;;60.83;34.85;;;5.20;99.90;;;;;;5100815;28;20028;-79
2021/11/11 16:56:19;;;;;;;57.17;34.28;;;5.10;99.90;;;;;;5102189;28;20035;-83
2021/11/11 16:58:45;;;;;;;62.97;36.22;;;5.10;99.90;;;;;;5100661;28;20111;-80